Redding, CA

10:32 AM PDT on October 21, 2014 (GMT -0700)
Bonny View - PIONEER LN. | Change Station
CLOSE
Current Station
Personal Weather Station
Location: Redding, CA
Elevation: 530 ft
Nearby Weather Stations

Elev 530 ft 40.54 °N, 122.37 °W | Updated 7 seconds ago

Clear
Clear
52.5 °F
Feels Like 52.5 °F
N
0.0
Wind Variable Wind from ENE
Gusts 0.0 mph

Today
High -- | Low -- °F
--% Chance of Precip.
Yesterday
High -- | Low -- °F
Precip. -- in
7:27 AM 6:20 PM
Waning Crescent, 5% visible
Pressure 30.13 in
Visibility 10.0 miles
Clouds Clear
Dew Point 48 °F
Humidity 86%
Rainfall 0.00 in
Snow Depth Not available.
UV 2 out of 12
Pollen 1.50 out of 12
Air Quality Not available.
Flu Activity Sporadic
METAR KRDD 211653Z 03005KT 10SM CLR 12/09 A3013 RMK AO2 SLP201 T01220094

More Conditions Fewer Conditions

Pressure 30.13 in
Visibility 10.0 miles
Clouds Clear
Dew Point 48 °F
Humidity 86%
Rainfall 0.00 in
Snow Depth Not available.
UV 2 out of 12
Pollen 1.50 out of 12
Air Quality Not available.
Flu Activity Sporadic
METAR KRDD 211653Z 03005KT 10SM CLR 12/09 A3013 RMK AO2 SLP201 T01220094

More Conditions Fewer Conditions

10-Day Weather Forecast

Almanac

Astronomy

Oct. 21, 2014 Rise Set
Actual Time 7:27 AM PDT 6:20 PM PDT
Civil Twilight 6:59 AM PDT 6:48 PM PDT
Nautical Twilight 6:27 AM PDT 7:20 PM PDT
Astronomical Twilight 5:56 AM PDT 7:51 PM PDT
Moon 5:16 AM PDT 5:17 PM PDT
Length of Visible Light 11h 48m
Length of Day
10h 53m
Tomorrow will be 2m 32s shorter.
Waning Crescent, 5% of the Moon is Illuminated
Today
Waning Crescent
Oct 23
New
Oct 30
First Quarter
Nov 6
Full
Nov 14
Last Quarter

Today's Extremes

State Highs State Lows

Community

WunderPhotos

Upload Photos

1,763,730 photos uploaded!

Nearby

Snow Depth

Station Depth Elevation
Adin Mountain 0 in 6200 ft
Independence Lake 0 in 8450 ft
Independence Camp 0 in 7000 ft
CSS Lab 0 in 6900 ft
Truckee #2 0 in 6400 ft

Earthquake Activity

City Distance Mag. Time & Date
Rio Dell, California 104 miles 4.2 7:24 AM PDT
2014-10-19
Minimum magnitude displayed is 2.5.

Coastal Water Temperatures

Place Temperature
No Stations Reporting

Nearby Weather Stations